Mossville, Arkansas
Current Conditions -  °F | °C
As of 4:53 PM on Wednesday 22 Oct 2014 (Local Time) from KHRO Reporting Station
Clear Clear  
Wind Chill: 68°   Ceiling: Unl
Heat Index: 68°   Visibility: 10mi
Dew Point: 49°   Wind: 9mph
Humidity: 50%   Direction: 120°ESE
Pressure: 30.16"   Gusts: NA
Location:  36.0047°N, 93.218°W
Report Text: KHRO 222153Z AUTO 12008KT 10SM CLR 20/09 A3016 RMK AO2 SLP209 T02000094
Loading
Personal Weather Stations






























Interactive Weather Map
Tropical Storm Tracking
New forecast layout! Learn more

10-Day Weather Forecast

Advertisements
Track Severe Weather on mobile